Ridgway, IL (62979)

6:08 AM CDT on April 28, 2015 (GMT -0500)
Harrisburg-Raleigh | | Change Station
CLOSE
Current Station
Airport
Location: Harrisburg,
Elevation: 397 ft
Nearby Weather Stations
Active Advisory: Flood Warning Active Notice: Local Storm Report

Elev 397 ft 37.81 °N, 88.55 °W | Updated 13 minutes ago

Clear
Clear
44 °F
Feels Like 39 °F
N
8
Wind Variable Wind from North

Today
High -- | Low -- °F
--% Chance of Precip.
Yesterday
High -- | Low -- °F
Precip. -- in
6:01 AM 7:40 PM
Waxing Gibbous, 73% visible
Pressure 30.09 in
Visibility 10.0 miles
Clouds Clear
Windchill 39 °F
Dew Point 38 °F
Humidity 79%
Rainfall 0.00 in
Snow Depth Not available.
UV 0 out of 12
Pollen 10.00 out of 12
Air Quality Not available.
Flu Activity Regional
METAR KHSB 281055Z AUTO 01007KT 10SM CLR 07/03 A3009 RMK AO2 T00650031

More Conditions Fewer Conditions

Pressure 30.09 in
Visibility 10.0 miles
Clouds Clear
Windchill 39 °F
Dew Point 38 °F
Humidity 79%
Rainfall 0.00 in
Snow Depth Not available.
UV 0 out of 12
Pollen 10.00 out of 12
Air Quality Not available.
Flu Activity Regional
METAR KHSB 281055Z AUTO 01007KT 10SM CLR 07/03 A3009 RMK AO2 T00650031

More Conditions Fewer Conditions

10-Day Weather Forecast

Almanac

Astronomy

Apr. 28, 2015 Rise Set
Actual Time
Civil Twilight
Nautical Twilight
Astronomical Twilight
Moon
Length of Visible Light
Length of Day
Tomorrow will be .
, % of the Moon is Illuminated

Today's Extremes

State Highs State Lows

Community

WunderPhotos

Upload Photos

1,817,603 photos uploaded!

WunderBlogs® & News

Nearby

Air Quality

  Air Quality AQ Index Pollutant
Not available.

Snow Depth

Station Depth Elevation

Earthquake Activity

City Distance Mag. Time & Date
Minimum magnitude displayed is 2.5.

Coastal Water Temperatures

Place Temperature

Stations

Nearby Weather Stations

Station Location Temp. Windchill Dew Point Humidity Wind Precip. Elev Updated Type
                   
Flood Warning
Statement as of 9:30 PM CDT on April 27, 2015

The Flood Warning continues for
the Ohio River at Shawneetown
* until Wednesday morning.
* At 8:30 PM Monday the stage was 34.7 feet.
* Flood stage is 33.0 feet.
* Minor flooding is occurring and minor flooding is forecast.
* Forecast... the river will continue to fall to below flood stage by
Wednesday morning.
* Impact... at 33.0 feet... minor flooding occurs affecting mainly
bottomland and surrounding low lying areas.


Lat... Lon 3778 8811 3771 8821 3753 8818 3757 8800
      3773 8800